createdAt,value
2023-04-17T00:02:48.491Z,15.33
2023-04-17T00:07:52.194Z,13.40
2023-04-17T00:12:56.820Z,13.50
2023-04-17T00:18:01.540Z,13.37
2023-04-17T00:23:04.987Z,12.83
2023-04-17T00:28:08.124Z,12.57
2023-04-17T00:33:15.635Z,11.83
2023-04-17T00:38:19.143Z,11.97
2023-04-17T00:43:22.452Z,10.13
2023-04-17T00:48:28.180Z,10.80
2023-04-17T00:53:32.437Z,12.67
2023-04-17T00:58:38.367Z,11.30
2023-04-17T01:03:43.756Z,10.33
2023-04-17T01:08:48.147Z,9.17
2023-04-17T01:13:52.241Z,9.43
2023-04-17T01:18:57.254Z,9.83
2023-04-17T01:24:04.040Z,10.93
2023-04-17T01:29:07.956Z,10.60
2023-04-17T01:34:12.242Z,12.20
2023-04-17T01:39:17.626Z,9.20
2023-04-17T01:44:20.936Z,10.03
2023-04-17T01:49:24.299Z,9.57
2023-04-17T01:54:28.970Z,9.60
2023-04-17T01:59:32.176Z,10.63
2023-04-17T02:04:35.610Z,10.20
2023-04-17T02:09:40.437Z,11.17
2023-04-17T02:14:43.848Z,11.50
2023-04-17T02:19:47.117Z,12.57
2023-04-17T02:24:51.710Z,11.70
2023-04-17T02:29:54.877Z,12.07
2023-04-17T02:34:58.297Z,12.57
2023-04-17T02:40:03.176Z,13.50
2023-04-17T02:45:07.925Z,16.57
2023-04-17T02:50:12.634Z,13.00
2023-04-17T02:55:20.215Z,11.93
2023-04-17T03:00:24.501Z,11.87
2023-04-17T03:05:30.563Z,12.23
2023-04-17T03:10:35.838Z,14.23
2023-04-17T03:15:39.137Z,11.87
2023-04-17T03:20:42.992Z,13.90
2023-04-17T03:25:47.706Z,12.60
2023-04-17T03:30:54.414Z,13.07
2023-04-17T03:35:57.864Z,13.37
2023-04-17T03:41:02.645Z,17.13
2023-04-17T03:46:07.736Z,15.03
2023-04-17T03:51:11.277Z,15.47
2023-04-17T03:56:31.729Z,14.07
2023-04-17T04:01:54.303Z,14.60
2023-04-17T04:07:09.125Z,13.83
2023-04-17T04:12:22.470Z,14.27
2023-04-17T04:17:26.890Z,15.17
2023-04-17T04:22:33.120Z,14.77
2023-04-17T04:27:38.005Z,13.83
2023-04-17T04:32:41.375Z,14.97
2023-04-17T04:37:46.625Z,17.67
2023-04-17T04:42:51.307Z,14.90
2023-04-17T04:47:54.714Z,14.20
2023-04-17T04:52:57.937Z,16.70
2023-04-17T04:58:02.907Z,15.20
2023-04-17T05:03:06.753Z,14.93
2023-04-17T05:08:10.380Z,16.23
2023-04-17T05:13:15.160Z,15.27
2023-04-17T05:18:20.300Z,15.97
2023-04-17T05:23:23.454Z,19.23
2023-04-17T05:28:29.854Z,16.00
2023-04-17T05:33:37.856Z,12.67
2023-04-17T05:38:41.488Z,11.93
2023-04-17T05:43:51.052Z,12.03
2023-04-17T05:48:54.451Z,12.47
2023-04-17T05:54:03.804Z,11.27
2023-04-17T05:59:08.456Z,12.57
2023-04-17T06:04:18.794Z,13.33
2023-04-17T06:09:24.480Z,13.53
2023-04-17T06:14:33.463Z,13.83
2023-04-17T06:19:36.675Z,17.87
2023-04-17T06:24:39.933Z,15.63
2023-04-17T06:29:44.779Z,14.77
2023-04-17T06:34:59.047Z,15.13
2023-04-17T06:40:02.457Z,15.90
2023-04-17T06:45:08.444Z,15.43
2023-04-17T06:50:12.064Z,17.07
2023-04-17T06:55:15.412Z,16.50
2023-04-17T07:00:21.475Z,15.20
2023-04-17T07:05:24.902Z,15.83
2023-04-17T07:10:28.420Z,14.43
2023-04-17T07:15:33.676Z,16.50
2023-04-17T07:20:39.976Z,14.93
2023-04-17T07:25:43.443Z,14.77
2023-04-17T07:30:48.322Z,12.77
2023-04-17T07:35:51.602Z,12.00
2023-04-17T07:40:54.830Z,11.77
2023-04-17T07:46:00.035Z,12.90
2023-04-17T07:51:04.473Z,14.37
2023-04-17T07:56:07.915Z,12.63
2023-04-17T08:01:12.489Z,12.70
2023-04-17T08:06:15.665Z,11.40
2023-04-17T08:11:18.855Z,12.27
2023-04-17T08:16:23.623Z,10.87
2023-04-17T08:21:26.933Z,13.50
2023-04-17T08:26:30.195Z,11.63
2023-04-17T08:31:36.757Z,11.10
2023-04-17T08:36:41.025Z,11.47
2023-04-17T08:41:50.573Z,11.57
2023-04-17T08:46:57.973Z,13.93
2023-04-17T08:52:03.497Z,13.07
2023-04-17T08:57:07.219Z,10.97
2023-04-17T09:02:11.928Z,9.57
2023-04-17T09:07:16.730Z,10.63
2023-04-17T09:12:20.341Z,8.70
2023-04-17T09:17:37.974Z,11.67
2023-04-17T09:22:42.421Z,10.32
2023-04-17T09:27:45.852Z,9.45
2023-04-17T09:33:03.894Z,7.93
2023-04-17T09:38:07.500Z,8.80
2023-04-17T09:43:11.660Z,7.40
2023-04-17T09:48:17.639Z,8.00
2023-04-17T09:53:21.318Z,9.43
2023-04-17T09:58:24.890Z,8.65
2023-04-17T10:03:30.117Z,7.82
2023-04-17T10:08:34.081Z,8.85
2023-04-17T10:13:42.997Z,8.10
2023-04-17T10:18:47.711Z,8.60
2023-04-17T10:23:51.169Z,7.85
2023-04-17T10:28:56.003Z,6.57
2023-04-17T10:34:01.045Z,7.13
2023-04-17T10:39:14.351Z,7.38
2023-04-17T10:44:19.451Z,7.28
2023-04-17T10:49:24.199Z,7.80
2023-04-17T10:54:27.612Z,7.47
2023-04-17T10:59:31.036Z,8.10
2023-04-17T11:04:36.647Z,8.88
2023-04-17T11:09:41.445Z,9.38
2023-04-17T11:14:44.548Z,7.43
2023-04-17T11:19:49.118Z,7.13
2023-04-17T11:24:53.030Z,10.63
2023-04-17T11:29:56.360Z,9.40
2023-04-17T11:35:01.167Z,7.47
2023-04-17T11:40:10.234Z,7.00
2023-04-17T11:45:13.699Z,8.10
2023-04-17T11:50:18.688Z,6.65
2023-04-17T11:55:21.969Z,7.25
2023-04-17T12:00:29.387Z,6.78
2023-04-17T12:05:34.108Z,6.55
2023-04-17T12:10:39.554Z,7.95
2023-04-17T12:15:42.944Z,6.30
2023-04-17T12:20:47.918Z,25.08
2023-04-17T12:25:51.120Z,7.65
2023-04-17T12:30:54.572Z,13.23
2023-04-17T12:36:00.159Z,7.95
2023-04-17T12:41:03.447Z,6.65
2023-04-17T12:46:07.058Z,8.07
2023-04-17T12:51:11.980Z,8.05
2023-04-17T12:56:15.679Z,6.80
2023-04-17T13:01:19.663Z,6.97
2023-04-17T13:06:24.306Z,7.40
2023-04-17T13:11:28.071Z,6.78
2023-04-17T13:16:32.193Z,6.85
2023-04-17T13:21:37.012Z,7.00
2023-04-17T13:26:40.489Z,8.23
2023-04-17T13:31:44.426Z,8.43
2023-04-17T13:36:49.827Z,9.20
2023-04-17T13:41:53.515Z,7.90
2023-04-17T13:46:56.853Z,8.60
2023-04-17T13:52:03.347Z,8.70
2023-04-17T13:57:06.783Z,9.82
2023-04-17T14:02:10.419Z,6.95
2023-04-17T14:07:18.403Z,9.40
2023-04-17T14:12:24.775Z,7.32
2023-04-17T14:17:28.000Z,8.20
2023-04-17T14:22:32.477Z,8.32
2023-04-17T14:27:39.694Z,11.07
2023-04-17T14:32:43.182Z,7.65
2023-04-17T14:37:48.578Z,7.60
2023-04-17T14:42:55.202Z,7.30
2023-04-17T14:47:59.248Z,7.22
2023-04-17T14:53:04.579Z,16.08
2023-04-17T14:58:07.740Z,6.93
2023-04-17T15:03:11.523Z,6.90
2023-04-17T15:08:16.932Z,7.60
2023-04-17T15:13:20.620Z,7.85
2023-04-17T15:18:24.064Z,8.55
2023-04-17T15:23:29.988Z,8.98
2023-04-17T15:28:34.137Z,7.78
2023-04-17T15:33:37.845Z,10.85
2023-04-17T15:38:42.505Z,14.55
2023-04-17T15:43:45.771Z,9.40
2023-04-17T15:49:04.653Z,8.80
2023-04-17T15:54:12.284Z,10.30
2023-04-17T15:59:16.485Z,11.52
2023-04-17T16:04:23.134Z,8.73
2023-04-17T16:09:27.886Z,9.90
2023-04-17T16:14:31.200Z,9.53
2023-04-17T16:19:35.492Z,10.75
2023-04-17T16:24:40.525Z,10.70
2023-04-17T16:29:44.418Z,8.93
2023-04-17T16:34:48.658Z,10.87
2023-04-17T16:39:53.582Z,9.43
2023-04-17T16:44:56.835Z,11.10
2023-04-17T16:50:00.096Z,8.80
2023-04-17T16:55:08.568Z,9.60
2023-04-17T17:00:14.003Z,13.77
2023-04-17T17:05:17.531Z,12.20
2023-04-17T17:10:22.261Z,11.70
2023-04-17T17:15:25.781Z,13.17
2023-04-17T17:20:30.334Z,15.00
2023-04-17T17:25:34.861Z,14.20
2023-04-17T17:30:41.033Z,14.50
2023-04-17T17:35:44.414Z,17.63
2023-04-17T17:41:12.890Z,17.83
2023-04-17T17:46:19.472Z,14.33
2023-04-17T17:51:23.871Z,17.53
2023-04-17T17:56:31.326Z,15.50
2023-04-17T18:01:34.890Z,12.60
2023-04-17T18:06:58.173Z,14.10
2023-04-17T18:12:08.667Z,14.33
2023-04-17T18:17:11.965Z,12.13
2023-04-17T18:22:15.586Z,12.97
2023-04-17T18:27:21.061Z,16.03
2023-04-17T18:32:24.829Z,11.07
2023-04-17T18:37:28.207Z,8.53
2023-04-17T18:42:33.128Z,9.30
2023-04-17T18:47:37.258Z,10.10
2023-04-17T18:52:45.029Z,8.10
2023-04-17T18:57:56.903Z,9.70
2023-04-17T19:03:02.541Z,8.83
2023-04-17T19:08:41.620Z,8.30
2023-04-17T19:13:48.091Z,10.00
2023-04-17T19:18:57.957Z,9.70
2023-04-17T19:24:01.213Z,9.10
2023-04-17T19:29:06.133Z,8.73
2023-04-17T19:34:10.664Z,7.53
2023-04-17T19:39:14.505Z,7.43
2023-04-17T19:44:19.457Z,6.97
2023-04-17T19:49:24.045Z,8.03
2023-04-17T19:54:28.296Z,8.37
2023-04-17T19:59:33.071Z,7.73
2023-04-17T20:04:36.392Z,9.93
2023-04-17T20:09:39.789Z,9.57
2023-04-17T20:14:44.687Z,10.00
2023-04-17T20:19:47.961Z,8.30
2023-04-17T20:24:51.173Z,9.43
2023-04-17T20:29:55.788Z,14.03
2023-04-17T20:34:59.203Z,9.73
2023-04-17T20:40:11.958Z,8.80
2023-04-17T20:45:20.884Z,8.17
2023-04-17T20:50:24.348Z,9.13
2023-04-17T20:55:28.152Z,6.43
2023-04-17T21:00:44.546Z,7.70
2023-04-17T21:05:57.889Z,8.57
2023-04-17T21:11:06.273Z,7.30
2023-04-17T21:16:12.970Z,7.43
2023-04-17T21:21:16.366Z,8.47
2023-04-17T21:26:19.739Z,9.93
2023-04-17T21:31:24.680Z,8.90
2023-04-17T21:36:28.726Z,7.00
2023-04-17T21:41:32.176Z,8.57
2023-04-17T21:46:36.834Z,8.80
2023-04-17T21:51:39.929Z,8.17
2023-04-17T21:56:43.004Z,8.73
2023-04-17T22:01:47.617Z,8.90
2023-04-17T22:06:51.828Z,9.83
2023-04-17T22:11:55.038Z,9.57
2023-04-17T22:16:59.624Z,10.30
2023-04-17T22:22:02.968Z,11.57
2023-04-17T22:27:06.131Z,10.23
2023-04-17T22:32:11.199Z,9.77
2023-04-17T22:37:14.452Z,12.53
2023-04-17T22:42:17.562Z,10.90
2023-04-17T22:47:22.902Z,11.43
2023-04-17T22:52:26.100Z,12.67
2023-04-17T22:57:29.431Z,12.77
2023-04-17T23:02:34.255Z,13.10
2023-04-17T23:07:37.760Z,11.17
2023-04-17T23:12:41.117Z,12.27
2023-04-17T23:17:46.233Z,14.43
2023-04-17T23:22:49.494Z,12.23
2023-04-17T23:27:52.625Z,11.57
2023-04-17T23:32:57.449Z,12.07
2023-04-17T23:38:00.836Z,12.87
2023-04-17T23:43:03.947Z,13.33
2023-04-17T23:48:08.597Z,14.60
2023-04-17T23:53:11.773Z,15.47
2023-04-17T23:58:14.993Z,13.03
